Time;durP1;ratioP1;P1;durP2;ratioP2;P2;SDS_P1;SDS_P2;PMS_P1;PMS_P2;Temp;Humidity;BMP_temperature;BMP_pressure;BME280_temperature;BME280_humidity;BME280_pressure;Samples;Min_cycle;Max_cycle;Signal;HPM_P1;HPM_P2
2023/01/14 00:00:21;;;;;;;;;;;8.00;94.90;;;;;;5021045;28;19929;-78
2023/01/14 00:02:47;;;;;;;;;;;8.00;94.90;;;;;;5020376;28;19929;-77
2023/01/14 00:05:15;;;;;;;;;;;7.90;94.80;;;;;;5019561;28;19936;-77
2023/01/14 00:07:42;;;;;;;;;;;7.90;94.80;;;;;;5019130;28;19929;-76
2023/01/14 00:10:09;;;;;;;;;;;7.90;94.80;;;;;;5018563;28;19929;-77
2023/01/14 00:12:36;;;;;;;;;;;7.90;94.80;;;;;;5015395;28;19944;-77
2023/01/14 00:15:03;;;;;;;;;;;7.90;94.80;;;;;;5019649;28;19929;-77
2023/01/14 00:17:29;;;;;;;;;;;7.90;94.80;;;;;;5018499;28;19929;-76
2023/01/14 00:19:56;;;;;;;;;;;7.90;94.80;;;;;;5018563;28;19932;-76
2023/01/14 00:22:24;;;;;;;;;;;7.90;94.90;;;;;;5015496;28;19936;-76
2023/01/14 00:24:50;;;;;;;;;;;7.90;94.90;;;;;;5016609;28;19936;-77
2023/01/14 00:27:17;;;;;;;;;;;7.80;94.80;;;;;;5013375;28;20397;-77
2023/01/14 00:29:43;;;;;;;;;;;7.80;94.80;;;;;;5023399;28;19995;-76
2023/01/14 00:32:10;;;;;;;;;;;7.80;94.80;;;;;;5013987;28;20363;-77
2023/01/14 00:34:37;;;;;;;;;;;7.80;94.80;;;;;;5021435;28;20324;-77
2023/01/14 00:37:03;;;;;;;;;;;7.80;94.80;;;;;;5023709;28;20036;-76
2023/01/14 00:39:31;;;;;;;;;;;7.80;94.80;;;;;;5018723;28;19952;-77
2023/01/14 00:41:58;;;;;;;;;;;7.80;94.90;;;;;;5023003;28;19929;-77
2023/01/14 00:44:24;;;;;;;;;;;7.80;94.90;;;;;;5015547;28;19929;-76
2023/01/14 00:46:53;;;;;;;;;;;7.80;94.90;;;;;;5020303;28;21529;-76
2023/01/14 00:49:20;;;;;;;;;;;7.70;94.90;;;;;;5020701;28;19929;-77
2023/01/14 00:51:48;;;;;;;;;;;7.70;94.90;;;;;;5018291;28;19933;-76
2023/01/14 00:54:14;;;;;;;;;;;7.70;94.90;;;;;;5015512;28;19936;-76
2023/01/14 00:56:42;;;;;;;;;;;7.70;94.90;;;;;;5019609;28;19929;-77
2023/01/14 00:59:11;;;;;;;;;;;7.70;94.90;;;;;;5018439;28;19929;-76
2023/01/14 01:01:37;;;;;;;;;;;7.70;94.90;;;;;;5020895;28;19933;-80
2023/01/14 01:04:04;;;;;;;;;;;7.60;94.90;;;;;;5021689;28;19929;-77
2023/01/14 01:06:31;;;;;;;;;;;7.70;94.90;;;;;;5020980;28;19933;-76
2023/01/14 01:08:58;;;;;;;;;;;7.70;95.00;;;;;;5023476;28;20284;-77
2023/01/14 01:11:25;;;;;;;;;;;7.60;95.00;;;;;;5019520;28;20028;-77
2023/01/14 01:13:54;;;;;;;;;;;7.60;95.00;;;;;;5019516;28;19929;-77
2023/01/14 01:16:23;;;;;;;;;;;7.60;95.00;;;;;;5017265;28;19929;-77
2023/01/14 01:18:51;;;;;;;;;;;7.60;95.00;;;;;;5020396;28;19983;-77
2023/01/14 01:21:18;;;;;;;;;;;7.60;95.00;;;;;;5017933;28;20516;-76
2023/01/14 01:23:45;;;;;;;;;;;7.60;95.00;;;;;;5016549;28;20511;-78
2023/01/14 01:26:12;;;;;;;;;;;7.60;95.10;;;;;;5018573;28;19937;-77
2023/01/14 01:28:39;;;;;;;;;;;7.60;95.10;;;;;;5016408;28;20620;-75
2023/01/14 01:31:07;;;;;;;;;;;7.60;95.10;;;;;;5015403;28;20407;-76
2023/01/14 01:33:34;;;;;;;;;;;7.60;95.10;;;;;;5016677;28;19929;-76
2023/01/14 01:36:01;;;;;;;;;;;7.50;95.20;;;;;;5019544;28;19929;-77
2023/01/14 01:38:28;;;;;;;;;;;7.60;95.20;;;;;;5020136;28;19993;-77
2023/01/14 01:40:55;;;;;;;;;;;7.50;95.10;;;;;;5021010;28;20541;-77
2023/01/14 01:43:23;;;;;;;;;;;7.50;95.00;;;;;;5014407;28;20533;-76
2023/01/14 01:45:50;;;;;;;;;;;7.50;95.00;;;;;;5012927;28;19960;-76
2023/01/14 01:48:21;;;;;;;;;;;7.50;95.10;;;;;;5012542;28;19936;-76
2023/01/14 01:50:50;;;;;;;;;;;7.50;95.10;;;;;;5018593;28;19971;-76
2023/01/14 01:53:17;;;;;;;;;;;7.50;95.10;;;;;;5015291;28;19933;-77
2023/01/14 01:55:46;;;;;;;;;;;7.50;95.20;;;;;;5017577;28;19933;-76
2023/01/14 01:58:13;;;;;;;;;;;7.50;95.20;;;;;;5011789;28;20746;-77
2023/01/14 02:00:39;;;;;;;;;;;7.50;95.20;;;;;;5014900;28;20354;-76
2023/01/14 02:03:09;;;;;;;;;;;7.40;95.20;;;;;;5016321;28;20391;-77
2023/01/14 02:05:37;;;;;;;;;;;7.50;95.20;;;;;;5015118;28;19929;-75
2023/01/14 02:08:03;;;;;;;;;;;7.40;95.20;;;;;;5012866;28;19933;-76
2023/01/14 02:10:37;;;;;;;;;;;7.40;95.20;;;;;;5016573;28;19929;-77
2023/01/14 02:13:20;;;;;;;;;;;7.40;95.20;;;;;;5015050;28;19936;-75
2023/01/14 02:15:55;;;;;;;;;;;7.40;95.20;;;;;;5009522;28;20052;-78
2023/01/14 02:18:32;;;;;;;;;;;7.40;95.30;;;;;;5019942;28;20048;-76
2023/01/14 02:21:04;;;;;;;;;;;7.40;95.30;;;;;;5014981;28;19937;-77
2023/01/14 02:23:55;;;;;;;;;;;7.40;95.30;;;;;;5006121;28;19944;-76
2023/01/14 02:26:48;;;;;;;;;;;7.40;95.30;;;;;;5000637;28;19929;-77
2023/01/14 02:29:39;;;;;;;;;;;7.30;95.30;;;;;;4960601;28;20270;-77
2023/01/14 02:32:11;;;;;;;;;;;7.30;95.30;;;;;;4990787;28;19933;-76
2023/01/14 02:34:42;;;;;;;;;;;7.30;95.30;;;;;;5016309;28;19937;-76
2023/01/14 02:37:11;;;;;;;;;;;7.30;95.40;;;;;;5015760;28;19963;-77
2023/01/14 02:39:40;;;;;;;;;;;7.30;95.40;;;;;;5016364;28;19933;-75
2023/01/14 02:44:58;;;;;;;;;;;7.30;95.50;;;;;;5010504;28;19935;-76
2023/01/14 02:47:27;;;;;;;;;;;7.30;95.50;;;;;;5015549;28;19933;-76
2023/01/14 02:49:55;;;;;;;;;;;7.30;95.50;;;;;;5013686;28;19940;-76
2023/01/14 02:52:22;;;;;;;;;;;7.30;95.60;;;;;;5017435;28;20481;-76
2023/01/14 02:54:52;;;;;;;;;;;7.30;95.60;;;;;;5014678;28;19929;-76
2023/01/14 02:57:23;;;;;;;;;;;7.20;95.60;;;;;;5015124;28;20283;-76
2023/01/14 02:59:53;;;;;;;;;;;7.30;95.60;;;;;;5017902;28;19929;-76
2023/01/14 03:02:25;;;;;;;;;;;7.20;95.60;;;;;;5019802;28;19937;-75
2023/01/14 03:05:02;;;;;;;;;;;7.20;95.60;;;;;;5013828;28;19937;-77
2023/01/14 03:07:31;;;;;;;;;;;7.20;95.70;;;;;;5018351;28;20415;-76
2023/01/14 03:10:01;;;;;;;;;;;7.20;95.70;;;;;;5018961;28;20016;-76
2023/01/14 03:12:33;;;;;;;;;;;7.20;95.70;;;;;;5016711;28;20386;-77
2023/01/14 03:15:05;;;;;;;;;;;7.20;95.80;;;;;;5018614;28;19948;-76
2023/01/14 03:17:34;;;;;;;;;;;7.20;95.80;;;;;;5014435;28;19941;-77
2023/01/14 03:20:04;;;;;;;;;;;7.10;95.70;;;;;;5015534;28;19929;-76
2023/01/14 03:22:32;;;;;;;;;;;7.20;95.80;;;;;;5020811;28;19936;-77
2023/01/14 03:24:59;;;;;;;;;;;7.10;95.80;;;;;;5017944;28;19925;-77
2023/01/14 03:27:28;;;;;;;;;;;7.10;95.80;;;;;;5016680;28;19936;-76
2023/01/14 03:29:56;;;;;;;;;;;7.10;95.90;;;;;;5016871;28;20036;-77
2023/01/14 03:32:24;;;;;;;;;;;7.10;95.90;;;;;;5013005;28;20418;-76
2023/01/14 03:34:54;;;;;;;;;;;7.10;95.90;;;;;;5022483;28;19933;-76
2023/01/14 03:37:23;;;;;;;;;;;7.10;95.90;;;;;;5016298;28;19933;-77
2023/01/14 03:39:50;;;;;;;;;;;7.10;95.90;;;;;;5020392;28;19929;-77
2023/01/14 03:42:20;;;;;;;;;;;7.10;96.00;;;;;;5020555;28;19933;-76
2023/01/14 03:44:52;;;;;;;;;;;7.00;96.00;;;;;;5018541;28;20019;-77
2023/01/14 03:47:19;;;;;;;;;;;7.10;96.10;;;;;;5016016;28;19929;-76
2023/01/14 03:49:45;;;;;;;;;;;7.00;96.10;;;;;;5018749;28;20019;-77
2023/01/14 03:52:14;;;;;;;;;;;7.00;96.10;;;;;;5021745;28;20284;-76
2023/01/14 03:54:49;;;;;;;;;;;7.00;96.10;;;;;;5019840;28;20477;-76
2023/01/14 03:57:18;;;;;;;;;;;7.00;96.10;;;;;;5024899;28;19933;-76
2023/01/14 03:59:46;;;;;;;;;;;7.00;96.10;;;;;;5019589;28;19961;-76
2023/01/14 04:02:14;;;;;;;;;;;7.00;96.10;;;;;;5018899;28;20310;-75
2023/01/14 04:04:41;;;;;;;;;;;7.00;96.10;;;;;;5018561;28;20438;-76
2023/01/14 04:07:08;;;;;;;;;;;7.00;96.10;;;;;;5020362;28;19938;-76
2023/01/14 04:09:35;;;;;;;;;;;7.00;96.20;;;;;;5018888;28;19933;-76
2023/01/14 04:12:03;;;;;;;;;;;6.90;96.10;;;;;;5014879;28;19973;-76
2023/01/14 04:17:13;;;;;;;;;;;7.00;96.20;;;;;;5020814;28;19932;-76
2023/01/14 04:19:40;;;;;;;;;;;7.00;96.20;;;;;;5017696;28;19991;-77
2023/01/14 04:22:06;;;;;;;;;;;6.90;96.20;;;;;;5017983;28;20417;-77
2023/01/14 04:24:33;;;;;;;;;;;7.00;96.20;;;;;;5018604;28;20485;-76
2023/01/14 04:26:59;;;;;;;;;;;6.90;96.20;;;;;;5021887;28;20477;-76
2023/01/14 04:29:27;;;;;;;;;;;6.90;96.20;;;;;;5018543;28;19936;-76
2023/01/14 04:31:54;;;;;;;;;;;7.00;96.30;;;;;;5016041;28;19937;-76
2023/01/14 04:34:20;;;;;;;;;;;6.90;96.30;;;;;;5018090;28;19933;-76
2023/01/14 04:36:47;;;;;;;;;;;6.90;96.30;;;;;;5019191;28;19929;-77
2023/01/14 04:39:14;;;;;;;;;;;6.90;96.30;;;;;;5020014;28;19936;-76
2023/01/14 04:44:24;;;;;;;;;;;6.90;96.40;;;;;;5019341;28;19987;-77
2023/01/14 04:46:52;;;;;;;;;;;6.90;96.40;;;;;;5013821;28;19929;-76
2023/01/14 04:49:19;;;;;;;;;;;6.90;96.40;;;;;;5019707;28;19940;-77
2023/01/14 04:51:45;;;;;;;;;;;6.90;96.40;;;;;;5018156;28;20007;-76
2023/01/14 04:54:12;;;;;;;;;;;6.90;96.50;;;;;;5019209;28;19925;-76
2023/01/14 04:56:38;;;;;;;;;;;6.90;96.50;;;;;;5015119;28;19933;-76
2023/01/14 04:59:05;;;;;;;;;;;6.90;96.50;;;;;;5017441;28;19937;-76
2023/01/14 05:01:31;;;;;;;;;;;6.90;96.50;;;;;;5018560;28;20141;-76
2023/01/14 05:03:59;;;;;;;;;;;6.90;96.80;;;;;;5019318;28;19940;-76
2023/01/14 05:06:26;;;;;;;;;;;6.90;96.60;;;;;;5020798;28;19947;-77
2023/01/14 05:08:52;;;;;;;;;;;6.90;96.60;;;;;;5016064;28;20630;-76
2023/01/14 05:11:19;;;;;;;;;;;6.90;96.60;;;;;;5019393;28;19941;-76
2023/01/14 05:13:46;;;;;;;;;;;6.90;96.60;;;;;;5014168;28;19929;-76
2023/01/14 05:16:12;;;;;;;;;;;6.90;96.60;;;;;;5013752;28;19940;-76
2023/01/14 05:18:39;;;;;;;;;;;6.90;96.60;;;;;;5016754;28;20304;-76
2023/01/14 05:21:07;;;;;;;;;;;6.90;96.60;;;;;;5019477;28;19936;-75
2023/01/14 05:23:33;;;;;;;;;;;6.90;96.70;;;;;;5017744;28;19925;-76
2023/01/14 05:26:00;;;;;;;;;;;6.90;96.70;;;;;;5015616;28;19929;-77
2023/01/14 05:28:26;;;;;;;;;;;6.90;96.70;;;;;;5014645;28;19976;-76
2023/01/14 05:30:53;;;;;;;;;;;6.90;96.70;;;;;;5016741;28;19932;-77
2023/01/14 05:33:19;;;;;;;;;;;6.90;96.70;;;;;;5016646;28;20422;-77
2023/01/14 05:35:46;;;;;;;;;;;6.90;96.70;;;;;;5014001;28;19933;-76
2023/01/14 05:38:14;;;;;;;;;;;6.90;96.70;;;;;;5021470;28;19960;-76
2023/01/14 05:40:40;;;;;;;;;;;6.90;96.70;;;;;;5019646;28;19929;-76
2023/01/14 05:45:51;;;;;;;;;;;6.80;96.60;;;;;;5015929;28;19936;-75
2023/01/14 05:48:19;;;;;;;;;;;6.90;96.70;;;;;;5014438;28;20030;-76
2023/01/14 05:50:49;;;;;;;;;;;6.80;96.70;;;;;;5017582;28;19945;-76
2023/01/14 05:53:17;;;;;;;;;;;6.80;96.70;;;;;;5019363;28;19936;-75
2023/01/14 05:55:44;;;;;;;;;;;6.90;96.70;;;;;;5012605;28;20354;-76
2023/01/14 05:58:10;;;;;;;;;;;6.80;96.70;;;;;;5013401;28;19952;-76
2023/01/14 06:06:21;;;;;;;;;;;6.80;96.70;;;;;;4992837;28;19979;-76
2023/01/14 06:08:50;;;;;;;;;;;6.80;96.70;;;;;;5016605;28;19929;-76
2023/01/14 06:11:17;;;;;;;;;;;6.80;96.70;;;;;;5017302;28;19933;-76
2023/01/14 06:13:45;;;;;;;;;;;6.80;96.80;;;;;;5020386;28;19933;-76
2023/01/14 06:16:11;;;;;;;;;;;6.80;96.80;;;;;;5014041;28;19933;-76
2023/01/14 06:18:41;;;;;;;;;;;6.80;96.80;;;;;;5013462;28;19933;-76
2023/01/14 06:21:09;;;;;;;;;;;6.80;96.80;;;;;;5017075;28;19944;-76
2023/01/14 06:23:35;;;;;;;;;;;6.80;96.80;;;;;;5017710;28;19929;-76
2023/01/14 06:26:03;;;;;;;;;;;6.80;96.80;;;;;;5013215;28;19933;-76
2023/01/14 06:28:30;;;;;;;;;;;6.70;96.80;;;;;;5015214;28;19936;-76
2023/01/14 06:30:56;;;;;;;;;;;6.80;96.80;;;;;;5014234;28;20007;-73
2023/01/14 06:33:23;;;;;;;;;;;6.70;97.10;;;;;;5011809;28;19929;-76
2023/01/14 06:35:50;;;;;;;;;;;6.70;96.80;;;;;;5013739;28;20722;-76
2023/01/14 06:38:17;;;;;;;;;;;6.70;96.90;;;;;;5015870;28;20024;-76
2023/01/14 06:40:44;;;;;;;;;;;6.70;96.90;;;;;;5021426;28;19929;-75
2023/01/14 06:43:12;;;;;;;;;;;6.70;96.90;;;;;;5019592;28;19935;-76
2023/01/14 06:45:38;;;;;;;;;;;6.70;96.90;;;;;;5014939;28;19930;-76
2023/01/14 06:48:05;;;;;;;;;;;6.70;96.90;;;;;;5016050;28;19936;-77
2023/01/14 06:50:31;;;;;;;;;;;6.70;96.90;;;;;;5015501;28;19940;-75
2023/01/14 06:53:02;;;;;;;;;;;6.70;97.00;;;;;;5017627;28;20403;-76
2023/01/14 06:55:28;;;;;;;;;;;6.70;97.00;;;;;;5016507;28;19976;-76
2023/01/14 06:57:55;;;;;;;;;;;6.60;97.00;;;;;;5013956;28;19933;-76
2023/01/14 07:00:23;;;;;;;;;;;6.60;97.00;;;;;;5017366;28;19991;-76
2023/01/14 07:02:49;;;;;;;;;;;6.60;97.00;;;;;;5016193;28;19933;-76
2023/01/14 07:05:16;;;;;;;;;;;6.70;97.10;;;;;;5017692;28;19940;-76
2023/01/14 07:07:45;;;;;;;;;;;6.60;97.10;;;;;;5017415;28;20403;-75
2023/01/14 07:10:11;;;;;;;;;;;6.60;97.10;;;;;;5021914;28;19933;-76
2023/01/14 07:12:38;;;;;;;;;;;6.60;97.10;;;;;;5018823;28;19929;-75
2023/01/14 07:15:04;;;;;;;;;;;6.60;97.10;;;;;;5014421;28;19929;-77
2023/01/14 07:17:32;;;;;;;;;;;6.60;97.10;;;;;;5013714;28;19936;-76
2023/01/14 07:19:59;;;;;;;;;;;6.60;97.10;;;;;;5018701;28;20413;-76
2023/01/14 07:22:25;;;;;;;;;;;6.60;97.10;;;;;;5019200;28;19929;-76
2023/01/14 07:24:52;;;;;;;;;;;6.60;97.10;;;;;;5016191;28;20003;-76
2023/01/14 07:27:19;;;;;;;;;;;6.60;97.20;;;;;;5016585;28;20394;-77
2023/01/14 07:29:45;;;;;;;;;;;6.60;97.20;;;;;;5017596;28;19941;-76
2023/01/14 07:32:12;;;;;;;;;;;6.60;97.20;;;;;;5012947;28;19936;-76
2023/01/14 07:34:40;;;;;;;;;;;6.60;97.20;;;;;;5014748;28;20322;-76
2023/01/14 07:37:06;;;;;;;;;;;6.60;97.20;;;;;;5014980;28;19956;-76
2023/01/14 07:39:33;;;;;;;;;;;6.60;97.20;;;;;;5015419;28;19935;-76
2023/01/14 07:41:59;;;;;;;;;;;6.50;97.20;;;;;;5014010;28;19971;-75
2023/01/14 07:44:26;;;;;;;;;;;6.50;97.20;;;;;;5017834;28;19933;-76
2023/01/14 07:46:53;;;;;;;;;;;6.50;97.20;;;;;;5014260;28;19936;-76
2023/01/14 07:49:20;;;;;;;;;;;6.50;97.20;;;;;;5012296;28;19937;-75
2023/01/14 07:51:48;;;;;;;;;;;6.50;97.20;;;;;;5018724;28;20792;-76
2023/01/14 07:54:15;;;;;;;;;;;6.50;97.20;;;;;;5017452;28;19936;-76
2023/01/14 07:56:41;;;;;;;;;;;6.50;97.20;;;;;;5018115;28;19936;-77
2023/01/14 07:59:08;;;;;;;;;;;6.50;97.20;;;;;;5011968;28;19968;-76
2023/01/14 08:01:35;;;;;;;;;;;6.60;97.20;;;;;;5011782;28;19937;-77
2023/01/14 08:04:02;;;;;;;;;;;6.50;97.20;;;;;;5009345;28;19979;-76
2023/01/14 08:06:28;;;;;;;;;;;6.50;97.20;;;;;;5015332;28;19940;-76
2023/01/14 08:08:58;;;;;;;;;;;6.50;97.20;;;;;;5015513;28;19932;-76
2023/01/14 08:11:24;;;;;;;;;;;6.50;97.20;;;;;;5010696;28;20039;-76
2023/01/14 08:13:51;;;;;;;;;;;6.50;97.20;;;;;;5014252;28;19940;-76
2023/01/14 08:16:18;;;;;;;;;;;6.50;97.20;;;;;;5010732;28;19937;-76
2023/01/14 08:18:44;;;;;;;;;;;6.50;97.20;;;;;;5016479;28;20392;-76
2023/01/14 08:21:11;;;;;;;;;;;6.50;97.20;;;;;;5016027;28;19929;-76
2023/01/14 08:23:37;;;;;;;;;;;6.50;97.20;;;;;;5020419;28;19933;-76
2023/01/14 08:26:06;;;;;;;;;;;6.50;97.20;;;;;;5019006;28;19936;-77
2023/01/14 08:28:33;;;;;;;;;;;6.50;97.20;;;;;;5019856;28;19937;-76
2023/01/14 08:31:00;;;;;;;;;;;6.50;97.20;;;;;;5017252;28;19925;-75
2023/01/14 08:33:27;;;;;;;;;;;6.50;97.20;;;;;;5020363;28;19933;-76
2023/01/14 08:35:53;;;;;;;;;;;6.50;97.20;;;;;;5023592;28;19929;-76
2023/01/14 08:38:20;;;;;;;;;;;6.50;97.20;;;;;;5021588;28;19994;-76
2023/01/14 08:40:48;;;;;;;;;;;6.50;97.20;;;;;;5023193;28;19940;-76
2023/01/14 08:43:15;;;;;;;;;;;6.50;97.20;;;;;;5020377;28;19936;-76
2023/01/14 08:45:42;;;;;;;;;;;6.50;97.20;;;;;;5021553;28;19933;-76
2023/01/14 08:48:08;;;;;;;;;;;6.60;97.20;;;;;;5021358;28;19929;-76
2023/01/14 08:50:35;;;;;;;;;;;6.60;97.20;;;;;;5015313;28;19925;-76
2023/01/14 08:53:02;;;;;;;;;;;6.60;97.20;;;;;;5019681;28;19932;-77
2023/01/14 08:55:28;;;;;;;;;;;6.60;97.20;;;;;;5018429;28;20004;-76
2023/01/14 08:57:55;;;;;;;;;;;6.60;97.20;;;;;;5020048;28;20011;-76
2023/01/14 09:00:22;;;;;;;;;;;6.60;97.20;;;;;;5018010;28;20024;-76
2023/01/14 09:02:49;;;;;;;;;;;6.60;97.20;;;;;;5011512;28;19948;-78
2023/01/14 09:05:16;;;;;;;;;;;6.60;97.20;;;;;;5021509;28;20070;-78
2023/01/14 09:18:41;;;;;;;;;;;6.60;97.20;;;;;;5011616;28;19936;-77
2023/01/14 09:21:08;;;;;;;;;;;6.60;97.20;;;;;;5010550;28;20033;-76
2023/01/14 09:23:35;;;;;;;;;;;6.60;97.20;;;;;;5011848;28;19929;-77
2023/01/14 09:26:01;;;;;;;;;;;6.70;97.20;;;;;;5009915;28;20611;-76
2023/01/14 09:28:28;;;;;;;;;;;6.60;97.20;;;;;;5011698;28;19933;-77
2023/01/14 09:30:54;;;;;;;;;;;6.60;97.10;;;;;;5012774;28;19933;-77
2023/01/14 09:33:22;;;;;;;;;;;6.60;97.10;;;;;;5009455;28;19937;-76
2023/01/14 09:35:49;;;;;;;;;;;6.70;97.20;;;;;;5016718;28;19944;-77
2023/01/14 09:38:15;;;;;;;;;;;6.60;97.10;;;;;;5011061;28;19929;-77
2023/01/14 09:40:42;;;;;;;;;;;6.70;97.20;;;;;;5017420;28;19940;-77
2023/01/14 09:43:14;;;;;;;;;;;6.70;97.20;;;;;;5019844;28;19933;-76
2023/01/14 09:45:41;;;;;;;;;;;6.70;97.20;;;;;;5015788;28;19937;-76
2023/01/14 09:48:12;;;;;;;;;;;6.70;97.20;;;;;;5015178;28;20393;-77
2023/01/14 09:50:45;;;;;;;;;;;6.70;97.20;;;;;;5017525;28;21697;-76
2023/01/14 09:53:20;;;;;;;;;;;6.70;97.20;;;;;;5005946;28;19936;-77
2023/01/14 09:55:49;;;;;;;;;;;6.70;97.40;;;;;;5012852;28;19940;-76
2023/01/14 09:58:19;;;;;;;;;;;6.70;97.20;;;;;;5013204;28;19940;-77
2023/01/14 10:00:49;;;;;;;;;;;6.70;97.20;;;;;;5008956;28;19929;-75
2023/01/14 10:03:24;;;;;;;;;;;6.70;97.20;;;;;;5008890;28;19940;-76
2023/01/14 10:05:54;;;;;;;;;;;6.70;97.20;;;;;;5009776;28;19936;-76
2023/01/14 10:08:22;;;;;;;;;;;6.70;97.20;;;;;;5010728;28;19929;-77
2023/01/14 10:10:49;;;;;;;;;;;6.70;97.20;;;;;;5011358;28;19936;-77
2023/01/14 10:13:20;;;;;;;;;;;6.70;97.20;;;;;;5013480;28;19929;-76
2023/01/14 10:15:48;;;;;;;;;;;6.80;97.20;;;;;;5011418;28;19937;-75
2023/01/14 10:18:19;;;;;;;;;;;6.80;97.20;;;;;;5013204;28;19933;-76
2023/01/14 10:20:51;;;;;;;;;;;6.80;97.20;;;;;;5013291;28;19936;-77
2023/01/14 10:23:21;;;;;;;;;;;6.80;97.20;;;;;;5009191;28;20419;-75
2023/01/14 10:25:49;;;;;;;;;;;6.80;97.30;;;;;;5009484;28;20054;-76
2023/01/14 10:28:17;;;;;;;;;;;6.80;97.30;;;;;;5007764;28;19965;-77
2023/01/14 10:30:43;;;;;;;;;;;6.80;97.30;;;;;;5010995;28;19956;-77
2023/01/14 10:33:13;;;;;;;;;;;6.80;97.40;;;;;;5008479;28;19933;-76
2023/01/14 10:35:41;;;;;;;;;;;6.80;97.40;;;;;;5009467;28;19940;-77
2023/01/14 10:38:08;;;;;;;;;;;6.90;97.40;;;;;;5011752;28;19929;-77
2023/01/14 10:40:35;;;;;;;;;;;6.90;97.50;;;;;;5010030;28;19929;-77
2023/01/14 10:43:03;;;;;;;;;;;6.90;97.40;;;;;;5012661;28;19936;-77
2023/01/14 10:45:30;;;;;;;;;;;6.90;97.50;;;;;;5017534;28;19937;-77
2023/01/14 10:48:02;;;;;;;;;;;7.00;97.50;;;;;;5018329;28;19976;-77
2023/01/14 10:50:28;;;;;;;;;;;7.00;97.60;;;;;;5012386;28;20136;-75
2023/01/14 10:52:55;;;;;;;;;;;7.00;97.90;;;;;;5014655;28;20393;-76
2023/01/14 10:55:23;;;;;;;;;;;7.00;97.70;;;;;;5016301;28;19991;-77
2023/01/14 10:57:53;;;;;;;;;;;7.10;97.70;;;;;;5015639;28;19933;-77
2023/01/14 11:00:38;;;;;;;;;;;7.10;97.70;;;;;;5019394;28;19940;-77
2023/01/14 11:03:05;;;;;;;;;;;7.10;97.70;;;;;;5020070;28;19933;-77
2023/01/14 11:05:33;;;;;;;;;;;7.10;97.70;;;;;;5019001;28;19929;-77
2023/01/14 11:08:01;;;;;;;;;;;7.20;97.80;;;;;;5019378;28;20613;-77
2023/01/14 11:10:28;;;;;;;;;;;7.20;97.80;;;;;;5016216;28;20024;-77
2023/01/14 11:13:13;;;;;;;;;;;7.20;97.80;;;;;;5014199;28;20303;-76
2023/01/14 11:15:41;;;;;;;;;;;7.20;97.80;;;;;;5017986;28;19929;-75
2023/01/14 11:18:22;;;;;;;;;;;7.20;97.70;;;;;;5013832;28;19935;-76
2023/01/14 11:20:52;;;;;;;;;;;7.30;97.70;;;;;;5012637;28;19937;-76
2023/01/14 11:23:25;;;;;;;;;;;7.30;97.70;;;;;;5009816;28;20413;-77
2023/01/14 11:25:51;;;;;;;;;;;7.30;97.60;;;;;;5008477;28;19929;-77
2023/01/14 11:28:20;;;;;;;;;;;7.30;97.60;;;;;;5007998;28;19929;-77
2023/01/14 11:30:48;;;;;;;;;;;7.40;97.60;;;;;;5008361;28;19926;-78
2023/01/14 11:33:20;;;;;;;;;;;7.40;97.60;;;;;;5007467;28;19933;-77
2023/01/14 11:35:51;;;;;;;;;;;7.40;97.60;;;;;;5010869;28;20398;-77
2023/01/14 11:38:21;;;;;;;;;;;7.40;97.50;;;;;;5009315;28;19929;-77
2023/01/14 11:43:51;;;;;;;;;;;7.50;97.50;;;;;;5018169;28;19932;-77
2023/01/14 11:46:18;;;;;;;;;;;7.50;97.40;;;;;;5017268;28;20375;-77
2023/01/14 11:48:44;;;;;;;;;;;7.50;97.40;;;;;;5016787;28;19925;-77
2023/01/14 11:51:17;;;;;;;;;;;7.50;97.40;;;;;;5009153;28;20011;-77
2023/01/14 11:53:45;;;;;;;;;;;7.50;97.30;;;;;;5020490;28;19929;-76
2023/01/14 11:56:15;;;;;;;;;;;7.50;97.30;;;;;;5019265;28;19933;-77
2023/01/14 11:58:43;;;;;;;;;;;7.60;97.40;;;;;;5019521;28;19936;-76
2023/01/14 12:01:14;;;;;;;;;;;7.60;97.30;;;;;;5019559;28;19929;-76
2023/01/14 12:03:46;;;;;;;;;;;7.60;97.30;;;;;;5020205;28;19929;-76
2023/01/14 12:06:14;;;;;;;;;;;7.60;97.30;;;;;;5020973;28;19933;-77
2023/01/14 12:08:42;;;;;;;;;;;7.60;97.20;;;;;;5018422;28;19933;-76
2023/01/14 12:11:14;;;;;;;;;;;7.60;97.20;;;;;;5019323;28;19940;-77
2023/01/14 12:16:50;;;;;;;;;;;7.60;97.20;;;;;;5018085;28;19995;-76
2023/01/14 12:19:18;;;;;;;;;;;7.60;97.10;;;;;;5014387;28;19965;-75
2023/01/14 12:21:48;;;;;;;;;;;7.60;97.10;;;;;;5016814;28;19936;-76
2023/01/14 12:24:16;;;;;;;;;;;7.60;97.10;;;;;;5015421;28;20345;-74
2023/01/14 12:26:44;;;;;;;;;;;7.60;97.20;;;;;;5015688;28;19929;-75
2023/01/14 12:29:14;;;;;;;;;;;7.60;97.20;;;;;;5019297;28;19933;-77
2023/01/14 12:31:44;;;;;;;;;;;7.70;97.20;;;;;;5015047;28;19970;-76
2023/01/14 12:34:15;;;;;;;;;;;7.60;97.20;;;;;;5008241;28;20379;-77
2023/01/14 12:36:45;;;;;;;;;;;7.70;97.20;;;;;;5013264;28;20379;-77
2023/01/14 12:47:35;;;;;;;;;;;7.70;97.20;;;;;;5014937;28;19978;-76
2023/01/14 12:50:08;;;;;;;;;;;7.70;97.20;;;;;;5013313;28;20379;-75
2023/01/14 12:52:36;;;;;;;;;;;7.70;97.20;;;;;;5010579;28;22199;-77
2023/01/14 12:55:04;;;;;;;;;;;7.80;97.20;;;;;;5010520;28;19938;-76
2023/01/14 12:57:31;;;;;;;;;;;7.70;97.20;;;;;;5009626;28;19948;-77
2023/01/14 13:00:02;;;;;;;;;;;7.80;97.30;;;;;;5015148;28;20050;-76
2023/01/14 13:02:33;;;;;;;;;;;7.70;97.50;;;;;;5015187;28;19929;-77
2023/01/14 13:05:03;;;;;;;;;;;7.80;97.30;;;;;;5015287;28;19944;-76
2023/01/14 13:07:31;;;;;;;;;;;7.80;97.30;;;;;;5009812;28;21352;-77
2023/01/14 13:10:00;;;;;;;;;;;7.80;97.30;;;;;;5010207;28;20442;-75
2023/01/14 13:12:27;;;;;;;;;;;7.80;97.30;;;;;;5015677;28;19929;-77
2023/01/14 13:14:55;;;;;;;;;;;7.80;97.30;;;;;;5018953;28;19940;-76
2023/01/14 13:17:31;;;;;;;;;;;7.80;97.30;;;;;;5012690;28;20390;-76
2023/01/14 13:19:58;;;;;;;;;;;7.80;97.30;;;;;;5010394;28;19959;-76
2023/01/14 13:22:43;;;;;;;;;;;7.90;97.40;;;;;;5009388;28;20614;-76
2023/01/14 13:25:19;;;;;;;;;;;7.80;97.30;;;;;;5011494;28;19929;-77
2023/01/14 13:27:46;;;;;;;;;;;7.80;97.30;;;;;;5016527;28;20421;-76
2023/01/14 13:30:32;;;;;;;;;;;7.90;97.30;;;;;;5015881;28;20000;-77
2023/01/14 13:33:06;;;;;;;;;;;7.90;97.10;;;;;;5013020;28;19937;-76
2023/01/14 13:35:34;;;;;;;;;;;7.90;96.90;;;;;;5011967;28;20510;-78
2023/01/14 13:38:02;;;;;;;;;;;7.90;96.80;;;;;;5001071;28;20012;-78
2023/01/14 13:40:31;;;;;;;;;;;7.90;96.50;;;;;;5002091;28;19940;-78
2023/01/14 13:43:00;;;;;;;;;;;7.90;96.40;;;;;;5011968;28;19937;-77
2023/01/14 13:45:27;;;;;;;;;;;8.00;96.30;;;;;;5012880;28;19933;-76
2023/01/14 13:47:55;;;;;;;;;;;8.00;96.30;;;;;;5017026;28;20040;-77
2023/01/14 13:50:23;;;;;;;;;;;8.00;96.30;;;;;;5018410;28;19933;-76
2023/01/14 13:52:51;;;;;;;;;;;8.00;96.20;;;;;;5017116;28;19956;-77
2023/01/14 13:55:22;;;;;;;;;;;8.00;96.40;;;;;;5013836;28;20316;-77
2023/01/14 13:57:51;;;;;;;;;;;8.00;96.00;;;;;;5014618;28;19933;-77
2023/01/14 14:00:28;;;;;;;;;;;8.00;95.90;;;;;;5018630;28;20394;-78
2023/01/14 14:02:56;;;;;;;;;;;8.10;95.80;;;;;;5011758;28;20367;-79
2023/01/14 14:05:24;;;;;;;;;;;8.10;95.80;;;;;;5011850;28;19937;-77
2023/01/14 14:07:59;;;;;;;;;;;8.10;95.80;;;;;;5006478;28;19933;-77
2023/01/14 14:10:30;;;;;;;;;;;8.10;95.40;;;;;;5013039;28;19935;-79
2023/01/14 14:15:44;;;;;;;;;;;8.10;95.30;;;;;;5005770;28;19936;-78
2023/01/14 14:18:19;;;;;;;;;;;8.20;95.20;;;;;;5012179;28;19933;-77
2023/01/14 14:20:45;;;;;;;;;;;8.20;95.10;;;;;;5009353;28;19943;-77
2023/01/14 14:23:19;;;;;;;;;;;8.20;95.10;;;;;;5014788;28;19940;-77
2023/01/14 14:25:47;;;;;;;;;;;8.20;95.00;;;;;;5014494;28;20568;-77
2023/01/14 14:28:16;;;;;;;;;;;8.20;94.80;;;;;;5015224;28;19925;-77
2023/01/14 14:30:45;;;;;;;;;;;8.20;94.70;;;;;;5017346;28;19933;-78
2023/01/14 14:33:26;;;;;;;;;;;8.20;94.70;;;;;;5015450;28;19933;-77
2023/01/14 14:35:53;;;;;;;;;;;8.30;94.70;;;;;;5020607;28;20451;-77
2023/01/14 14:38:19;;;;;;;;;;;8.30;94.70;;;;;;5015905;28;19929;-77
2023/01/14 14:40:48;;;;;;;;;;;8.30;94.50;;;;;;5018747;28;19932;-78
2023/01/14 14:43:23;;;;;;;;;;;8.30;94.50;;;;;;5019377;28;19929;-78
2023/01/14 14:45:58;;;;;;;;;;;8.30;94.40;;;;;;5018796;28;19936;-77
2023/01/14 14:48:27;;;;;;;;;;;8.30;94.30;;;;;;5017467;28;19933;-79
2023/01/14 14:50:54;;;;;;;;;;;8.30;94.20;;;;;;5016367;28;19940;-77
2023/01/14 14:53:28;;;;;;;;;;;8.40;94.20;;;;;;5020750;28;19925;-77
2023/01/14 14:55:57;;;;;;;;;;;8.40;94.20;;;;;;5018554;28;20731;-78
2023/01/14 14:58:24;;;;;;;;;;;8.40;94.30;;;;;;5018063;28;19934;-79
2023/01/14 15:00:55;;;;;;;;;;;8.40;94.70;;;;;;5019398;28;19929;-78
2023/01/14 15:03:22;;;;;;;;;;;8.40;94.50;;;;;;5013673;28;19939;-75
2023/01/14 15:05:49;;;;;;;;;;;8.40;94.60;;;;;;5020902;28;20423;-77
2023/01/14 15:08:17;;;;;;;;;;;8.40;94.60;;;;;;5017989;28;19937;-79
2023/01/14 15:10:44;;;;;;;;;;;8.40;94.70;;;;;;5016894;28;19940;-79
2023/01/14 15:13:16;;;;;;;;;;;8.40;94.80;;;;;;5018213;28;20043;-78
2023/01/14 15:15:42;;;;;;;;;;;8.40;94.80;;;;;;5017128;28;20011;-76
2023/01/14 15:18:20;;;;;;;;;;;8.40;94.90;;;;;;5014457;28;19929;-77
2023/01/14 15:20:48;;;;;;;;;;;8.40;94.80;;;;;;5013373;28;19936;-79
2023/01/14 15:23:16;;;;;;;;;;;8.50;94.80;;;;;;5011256;28;20414;-77